sensor_id;sensor_type;location;lat;lon;timestamp;pressure;altitude;pressure_sealevel;temperature;humidity
23473;BME280;11909;52.516;13.564;2023-08-12T00:01:02;101349.06;;;17.87;91.22
23473;BME280;11909;52.516;13.564;2023-08-12T00:03:30;101351.03;;;17.86;91.35
23473;BME280;11909;52.516;13.564;2023-08-12T00:05:59;101353.31;;;17.84;91.99
23473;BME280;11909;52.516;13.564;2023-08-12T00:08:28;101356.22;;;17.79;92.73
23473;BME280;11909;52.516;13.564;2023-08-12T00:10:57;101356.53;;;17.77;92.98
23473;BME280;11909;52.516;13.564;2023-08-12T00:13:24;101357.16;;;17.74;92.42
23473;BME280;11909;52.516;13.564;2023-08-12T00:15:54;101359.44;;;17.72;92.46
23473;BME280;11909;52.516;13.564;2023-08-12T00:18:22;101362.84;;;17.69;92.30
23473;BME280;11909;52.516;13.564;2023-08-12T00:20:51;101355.16;;;17.66;92.35
23473;BME280;11909;52.516;13.564;2023-08-12T00:23:19;101360.88;;;17.70;92.20
23473;BME280;11909;52.516;13.564;2023-08-12T00:25:49;101362.34;;;17.67;91.83
23473;BME280;11909;52.516;13.564;2023-08-12T00:28:17;101361.94;;;17.60;92.59
23473;BME280;11909;52.516;13.564;2023-08-12T00:30:47;101359.38;;;17.63;92.67
23473;BME280;11909;52.516;13.564;2023-08-12T00:33:15;101350.31;;;17.58;93.52
23473;BME280;11909;52.516;13.564;2023-08-12T00:35:44;101351.16;;;17.58;93.62
23473;BME280;11909;52.516;13.564;2023-08-12T00:38:12;101346.25;;;17.55;93.74
23473;BME280;11909;52.516;13.564;2023-08-12T00:40:40;101343.25;;;17.52;94.27
23473;BME280;11909;52.516;13.564;2023-08-12T00:43:09;101342.25;;;17.47;94.42
23473;BME280;11909;52.516;13.564;2023-08-12T00:45:37;101334.06;;;17.42;94.62
23473;BME280;11909;52.516;13.564;2023-08-12T00:48:06;101332.09;;;17.43;94.84
23473;BME280;11909;52.516;13.564;2023-08-12T00:50:41;101335.69;;;17.43;94.63
23473;BME280;11909;52.516;13.564;2023-08-12T00:53:10;101328.81;;;17.41;95.02
23473;BME280;11909;52.516;13.564;2023-08-12T00:55:39;101327.16;;;17.40;94.81
23473;BME280;11909;52.516;13.564;2023-08-12T00:58:08;101324.41;;;17.40;95.18
23473;BME280;11909;52.516;13.564;2023-08-12T01:00:36;101316.69;;;17.37;95.42
23473;BME280;11909;52.516;13.564;2023-08-12T01:03:05;101323.06;;;17.37;95.76
23473;BME280;11909;52.516;13.564;2023-08-12T01:05:33;101312.47;;;17.39;95.38
23473;BME280;11909;52.516;13.564;2023-08-12T01:08:07;101310.19;;;17.41;95.77
23473;BME280;11909;52.516;13.564;2023-08-12T01:10:36;101309.38;;;17.41;96.14
23473;BME280;11909;52.516;13.564;2023-08-12T01:13:13;101298.28;;;17.41;96.32
23473;BME280;11909;52.516;13.564;2023-08-12T01:15:46;101306.09;;;17.39;96.09
23473;BME280;11909;52.516;13.564;2023-08-12T01:18:15;101302.19;;;17.40;95.74
23473;BME280;11909;52.516;13.564;2023-08-12T01:20:43;101296.31;;;17.41;95.06
23473;BME280;11909;52.516;13.564;2023-08-12T01:23:13;101302.81;;;17.37;94.60
23473;BME280;11909;52.516;13.564;2023-08-12T01:25:41;101300.06;;;17.37;94.80
23473;BME280;11909;52.516;13.564;2023-08-12T01:28:09;101292.53;;;17.37;94.76
23473;BME280;11909;52.516;13.564;2023-08-12T01:30:41;101292.53;;;17.37;94.49
23473;BME280;11909;52.516;13.564;2023-08-12T01:33:17;101292.88;;;17.36;94.18
23473;BME280;11909;52.516;13.564;2023-08-12T01:35:51;101296.56;;;17.31;94.93
23473;BME280;11909;52.516;13.564;2023-08-12T01:38:24;101291.31;;;17.29;95.11
23473;BME280;11909;52.516;13.564;2023-08-12T01:40:53;101291.66;;;17.28;95.07
23473;BME280;11909;52.516;13.564;2023-08-12T01:43:23;101291.16;;;17.26;94.61
23473;BME280;11909;52.516;13.564;2023-08-12T01:45:51;101292.91;;;17.22;94.39
23473;BME280;11909;52.516;13.564;2023-08-12T01:48:20;101278.22;;;17.21;94.28
23473;BME280;11909;52.516;13.564;2023-08-12T01:50:49;101276.56;;;17.20;95.39
23473;BME280;11909;52.516;13.564;2023-08-12T01:53:18;101280.47;;;17.19;95.98
23473;BME280;11909;52.516;13.564;2023-08-12T01:55:49;101266.75;;;17.14;96.56
23473;BME280;11909;52.516;13.564;2023-08-12T01:58:17;101271.16;;;17.15;96.13
23473;BME280;11909;52.516;13.564;2023-08-12T02:00:45;101275.22;;;17.17;95.91
23473;BME280;11909;52.516;13.564;2023-08-12T02:03:13;101273.41;;;17.13;95.93
23473;BME280;11909;52.516;13.564;2023-08-12T02:05:41;101258.84;;;17.07;95.91
23473;BME280;11909;52.516;13.564;2023-08-12T02:08:10;101271.69;;;17.03;95.92
23473;BME280;11909;52.516;13.564;2023-08-12T02:10:38;101262.25;;;17.04;96.17
23473;BME280;11909;52.516;13.564;2023-08-12T02:13:07;101259.47;;;17.04;96.34
23473;BME280;11909;52.516;13.564;2023-08-12T02:15:35;101258.13;;;17.01;96.86
23473;BME280;11909;52.516;13.564;2023-08-12T02:18:03;101250.94;;;17.00;96.78
23473;BME280;11909;52.516;13.564;2023-08-12T02:20:32;101252.09;;;16.99;96.94
23473;BME280;11909;52.516;13.564;2023-08-12T02:22:59;101249.91;;;16.96;96.88
23473;BME280;11909;52.516;13.564;2023-08-12T02:25:28;101239.22;;;16.89;97.55
23473;BME280;11909;52.516;13.564;2023-08-12T02:27:55;101236.34;;;16.95;97.15
23473;BME280;11909;52.516;13.564;2023-08-12T02:30:25;101239.13;;;16.95;96.80
23473;BME280;11909;52.516;13.564;2023-08-12T02:32:53;101239.44;;;16.93;96.40
23473;BME280;11909;52.516;13.564;2023-08-12T02:35:20;101237.47;;;16.94;96.18
23473;BME280;11909;52.516;13.564;2023-08-12T02:37:49;101230.78;;;16.95;96.04
23473;BME280;11909;52.516;13.564;2023-08-12T02:40:16;101237.41;;;16.99;96.25
23473;BME280;11909;52.516;13.564;2023-08-12T02:42:45;101232.13;;;16.97;96.20
23473;BME280;11909;52.516;13.564;2023-08-12T02:45:12;101234.91;;;16.97;96.13
23473;BME280;11909;52.516;13.564;2023-08-12T02:47:42;101223.56;;;16.99;96.27
23473;BME280;11909;52.516;13.564;2023-08-12T02:50:10;101220.78;;;16.99;96.03
23473;BME280;11909;52.516;13.564;2023-08-12T02:52:38;101220.25;;;16.97;96.05
23473;BME280;11909;52.516;13.564;2023-08-12T02:55:06;101225.19;;;17.00;96.55
23473;BME280;11909;52.516;13.564;2023-08-12T02:57:34;101225.19;;;17.00;96.29
23473;BME280;11909;52.516;13.564;2023-08-12T03:00:02;101214.59;;;17.02;95.76
23473;BME280;11909;52.516;13.564;2023-08-12T03:02:32;101220.44;;;17.00;95.41
23473;BME280;11909;52.516;13.564;2023-08-12T03:05:01;101217.16;;;16.98;95.49
23473;BME280;11909;52.516;13.564;2023-08-12T03:07:29;101213.25;;;16.99;95.63
23473;BME280;11909;52.516;13.564;2023-08-12T03:09:58;101212.13;;;17.00;95.45
23473;BME280;11909;52.516;13.564;2023-08-12T03:12:26;101207.72;;;16.99;95.75
23473;BME280;11909;52.516;13.564;2023-08-12T03:14:54;101212.97;;;17.01;95.78
23473;BME280;11909;52.516;13.564;2023-08-12T03:17:22;101210.19;;;17.01;95.85
23473;BME280;11909;52.516;13.564;2023-08-12T03:19:50;101198.06;;;16.97;95.27
23473;BME280;11909;52.516;13.564;2023-08-12T03:22:19;101209.97;;;16.97;95.10
23473;BME280;11909;52.516;13.564;2023-08-12T03:24:48;101208.63;;;16.95;94.88
23473;BME280;11909;52.516;13.564;2023-08-12T03:27:16;101209.75;;;16.94;94.73
23473;BME280;11909;52.516;13.564;2023-08-12T03:29:44;101208.25;;;16.87;94.62
23473;BME280;11909;52.516;13.564;2023-08-12T03:32:13;101204.97;;;16.85;95.14
23473;BME280;11909;52.516;13.564;2023-08-12T03:34:41;101204.66;;;16.87;95.36
23473;BME280;11909;52.516;13.564;2023-08-12T03:37:09;101201.06;;;16.86;96.05
23473;BME280;11909;52.516;13.564;2023-08-12T03:39:38;101201.56;;;16.88;96.08
23473;BME280;11909;52.516;13.564;2023-08-12T03:42:06;101198.59;;;16.85;96.00
23473;BME280;11909;52.516;13.564;2023-08-12T03:44:34;101189.75;;;16.83;95.76
23473;BME280;11909;52.516;13.564;2023-08-12T03:47:02;101188.97;;;16.82;96.16
23473;BME280;11909;52.516;13.564;2023-08-12T03:49:30;101183.09;;;16.84;96.16
23473;BME280;11909;52.516;13.564;2023-08-12T03:51:59;101177.66;;;16.78;96.60
23473;BME280;11909;52.516;13.564;2023-08-12T03:54:26;101179.94;;;16.76;96.76
23473;BME280;11909;52.516;13.564;2023-08-12T03:56:56;101172.75;;;16.75;96.86
23473;BME280;11909;52.516;13.564;2023-08-12T03:59:24;101180.34;;;16.70;96.79
23473;BME280;11909;52.516;13.564;2023-08-12T04:01:52;101180.06;;;16.71;96.95
23473;BME280;11909;52.516;13.564;2023-08-12T04:04:20;101174.00;;;16.69;96.84
23473;BME280;11909;52.516;13.564;2023-08-12T04:06:48;101171.25;;;16.69;96.95
23473;BME280;11909;52.516;13.564;2023-08-12T04:09:17;101169.28;;;16.70;97.05
23473;BME280;11909;52.516;13.564;2023-08-12T04:11:46;101174.00;;;16.69;97.77
23473;BME280;11909;52.516;13.564;2023-08-12T04:14:15;101168.13;;;16.71;97.54
23473;BME280;11909;52.516;13.564;2023-08-12T04:16:43;101164.56;;;16.70;97.46
23473;BME280;11909;52.516;13.564;2023-08-12T04:19:11;101157.19;;;16.66;98.33
23473;BME280;11909;52.516;13.564;2023-08-12T04:21:39;101153.91;;;16.63;98.48
23473;BME280;11909;52.516;13.564;2023-08-12T04:24:08;101157.81;;;16.62;98.77
23473;BME280;11909;52.516;13.564;2023-08-12T04:26:36;101154.72;;;16.64;98.40
23473;BME280;11909;52.516;13.564;2023-08-12T04:29:04;101162.09;;;16.69;98.01
23473;BME280;11909;52.516;13.564;2023-08-12T04:31:33;101158.63;;;16.63;98.68
23473;BME280;11909;52.516;13.564;2023-08-12T04:34:02;101164.69;;;16.65;98.50
23473;BME280;11909;52.516;13.564;2023-08-12T04:36:30;101156.38;;;16.65;98.41
23473;BME280;11909;52.516;13.564;2023-08-12T04:38:58;101156.38;;;16.65;98.21
23473;BME280;11909;52.516;13.564;2023-08-12T04:41:26;101152.47;;;16.66;98.64
23473;BME280;11909;52.516;13.564;2023-08-12T04:43:54;101146.28;;;16.69;98.29
23473;BME280;11909;52.516;13.564;2023-08-12T04:46:22;101148.13;;;16.74;98.35
23473;BME280;11909;52.516;13.564;2023-08-12T04:48:52;101148.13;;;16.74;98.74
23473;BME280;11909;52.516;13.564;2023-08-12T04:51:20;101159.53;;;16.72;98.65
23473;BME280;11909;52.516;13.564;2023-08-12T04:53:48;101152.22;;;16.76;98.44
23473;BME280;11909;52.516;13.564;2023-08-12T04:56:15;101146.03;;;16.80;98.14
23473;BME280;11909;52.516;13.564;2023-08-12T04:58:45;101154.34;;;16.80;97.79
23473;BME280;11909;52.516;13.564;2023-08-12T05:01:12;101155.00;;;16.76;97.50
23473;BME280;11909;52.516;13.564;2023-08-12T05:03:41;101158.97;;;16.84;95.17
23473;BME280;11909;52.516;13.564;2023-08-12T05:06:10;101164.25;;;16.95;93.59
23473;BME280;11909;52.516;13.564;2023-08-12T05:08:38;101157.81;;;16.99;94.19
23473;BME280;11909;52.516;13.564;2023-08-12T05:11:06;101157.19;;;17.02;94.38
23473;BME280;11909;52.516;13.564;2023-08-12T05:13:34;101165.06;;;17.09;94.24
23473;BME280;11909;52.516;13.564;2023-08-12T05:16:02;101164.19;;;17.23;92.13
23473;BME280;11909;52.516;13.564;2023-08-12T05:18:30;101159.31;;;17.28;91.91
23473;BME280;11909;52.516;13.564;2023-08-12T05:20:58;101156.75;;;17.32;93.52
23473;BME280;11909;52.516;13.564;2023-08-12T05:23:27;101145.34;;;17.33;94.24
23473;BME280;11909;52.516;13.564;2023-08-12T05:25:55;101153.03;;;17.37;94.46
23473;BME280;11909;52.516;13.564;2023-08-12T05:28:23;101157.94;;;17.40;94.06
23473;BME280;11909;52.516;13.564;2023-08-12T05:30:51;101155.03;;;17.45;94.39
23473;BME280;11909;52.516;13.564;2023-08-12T05:33:21;101142.34;;;17.53;93.92
23473;BME280;11909;52.516;13.564;2023-08-12T05:35:50;101142.19;;;17.58;94.68
23473;BME280;11909;52.516;13.564;2023-08-12T05:38:18;101148.13;;;17.65;92.16
23473;BME280;11909;52.516;13.564;2023-08-12T05:40:47;101144.88;;;17.72;92.45
23473;BME280;11909;52.516;13.564;2023-08-12T05:43:15;101132.84;;;17.85;93.95
23473;BME280;11909;52.516;13.564;2023-08-12T05:45:43;101133.53;;;17.91;91.18
23473;BME280;11909;52.516;13.564;2023-08-12T05:48:11;101133.75;;;18.03;92.03
23473;BME280;11909;52.516;13.564;2023-08-12T05:50:39;101133.28;;;18.10;93.47
23473;BME280;11909;52.516;13.564;2023-08-12T05:53:07;101146.59;;;18.31;87.73
23473;BME280;11909;52.516;13.564;2023-08-12T05:55:35;101155.94;;;18.44;85.13
23473;BME280;11909;52.516;13.564;2023-08-12T05:58:04;101151.50;;;18.43;86.05
23473;BME280;11909;52.516;13.564;2023-08-12T06:00:32;101147.28;;;18.45;85.84
23473;BME280;11909;52.516;13.564;2023-08-12T06:03:00;101146.13;;;18.46;86.91
23473;BME280;11909;52.516;13.564;2023-08-12T06:05:28;101146.78;;;18.52;87.82
23473;BME280;11909;52.516;13.564;2023-08-12T06:07:56;101135.00;;;18.55;89.49
23473;BME280;11909;52.516;13.564;2023-08-12T06:10:24;101132.41;;;18.59;91.34
23473;BME280;11909;52.516;13.564;2023-08-12T06:12:52;101130.09;;;18.61;92.58
23473;BME280;11909;52.516;13.564;2023-08-12T06:15:21;101134.22;;;18.63;93.53
23473;BME280;11909;52.516;13.564;2023-08-12T06:17:49;101130.44;;;18.68;94.81
23473;BME280;11909;52.516;13.564;2023-08-12T06:20:17;101116.53;;;18.68;95.43
23473;BME280;11909;52.516;13.564;2023-08-12T06:22:45;101129.31;;;18.69;95.55
23473;BME280;11909;52.516;13.564;2023-08-12T06:25:14;101133.06;;;18.73;96.21
23473;BME280;11909;52.516;13.564;2023-08-12T06:27:41;101139.59;;;18.77;90.57
23473;BME280;11909;52.516;13.564;2023-08-12T06:30:11;101134.34;;;18.85;91.90
23473;BME280;11909;52.516;13.564;2023-08-12T06:32:40;101131.75;;;18.88;93.85
23473;BME280;11909;52.516;13.564;2023-08-12T06:35:09;101128.13;;;18.88;94.64
23473;BME280;11909;52.516;13.564;2023-08-12T06:37:36;101131.09;;;18.91;95.09
23473;BME280;11909;52.516;13.564;2023-08-12T06:40:06;101120.81;;;18.92;95.84
23473;BME280;11909;52.516;13.564;2023-08-12T06:42:34;101128.66;;;18.99;95.79
23473;BME280;11909;52.516;13.564;2023-08-12T06:45:03;101128.97;;;18.97;91.12
23473;BME280;11909;52.516;13.564;2023-08-12T06:47:31;101133.56;;;19.02;91.80
23473;BME280;11909;52.516;13.564;2023-08-12T06:50:01;101127.84;;;19.07;89.36
23473;BME280;11909;52.516;13.564;2023-08-12T06:52:28;101129.63;;;19.12;88.28
23473;BME280;11909;52.516;13.564;2023-08-12T06:54:57;101126.34;;;19.18;86.60
23473;BME280;11909;52.516;13.564;2023-08-12T06:57:25;101133.03;;;19.26;86.54
23473;BME280;11909;52.516;13.564;2023-08-12T06:59:53;101121.59;;;19.28;88.12
23473;BME280;11909;52.516;13.564;2023-08-12T07:02:20;101118.44;;;19.38;88.26
23473;BME280;11909;52.516;13.564;2023-08-12T07:04:49;101125.31;;;19.41;87.13
23473;BME280;11909;52.516;13.564;2023-08-12T07:07:18;101127.63;;;19.39;86.66
23473;BME280;11909;52.516;13.564;2023-08-12T07:09:46;101127.75;;;19.42;85.41
23473;BME280;11909;52.516;13.564;2023-08-12T07:12:13;101128.88;;;19.50;84.58
23473;BME280;11909;52.516;13.564;2023-08-12T07:14:41;101128.22;;;19.53;84.87
23473;BME280;11909;52.516;13.564;2023-08-12T07:17:09;101135.75;;;19.61;83.36
23473;BME280;11909;52.516;13.564;2023-08-12T07:19:37;101124.22;;;19.72;81.71
23473;BME280;11909;52.516;13.564;2023-08-12T07:22:05;101127.31;;;19.70;82.39
23473;BME280;11909;52.516;13.564;2023-08-12T07:24:35;101120.59;;;19.71;84.26
23473;BME280;11909;52.516;13.564;2023-08-12T07:27:04;101119.63;;;19.76;85.43
23473;BME280;11909;52.516;13.564;2023-08-12T07:29:33;101115.69;;;19.77;84.95
23473;BME280;11909;52.516;13.564;2023-08-12T07:32:01;101120.09;;;19.78;85.01
23473;BME280;11909;52.516;13.564;2023-08-12T07:34:29;101109.75;;;19.87;87.25
23473;BME280;11909;52.516;13.564;2023-08-12T07:36:57;101115.91;;;20.02;85.05
23473;BME280;11909;52.516;13.564;2023-08-12T07:39:25;101120.16;;;20.08;83.24
23473;BME280;11909;52.516;13.564;2023-08-12T07:41:55;101121.13;;;20.12;83.13
23473;BME280;11909;52.516;13.564;2023-08-12T07:44:22;101108.63;;;20.18;85.88
23473;BME280;11909;52.516;13.564;2023-08-12T07:46:51;101101.22;;;20.23;87.50
23473;BME280;11909;52.516;13.564;2023-08-12T07:49:18;101096.25;;;20.28;88.56
23473;BME280;11909;52.516;13.564;2023-08-12T07:51:46;101092.72;;;20.40;88.28
23473;BME280;11909;52.516;13.564;2023-08-12T07:54:14;101102.41;;;20.43;87.45
23473;BME280;11909;52.516;13.564;2023-08-12T07:56:42;101110.66;;;20.52;83.32
23473;BME280;11909;52.516;13.564;2023-08-12T07:59:11;101116.53;;;20.59;81.89
23473;BME280;11909;52.516;13.564;2023-08-12T08:01:39;101100.97;;;20.58;83.90
23473;BME280;11909;52.516;13.564;2023-08-12T08:04:07;101091.78;;;20.57;84.64
23473;BME280;11909;52.516;13.564;2023-08-12T08:06:35;101097.50;;;20.61;84.33
23473;BME280;11909;52.516;13.564;2023-08-12T08:09:03;101090.41;;;20.63;85.16
23473;BME280;11909;52.516;13.564;2023-08-12T08:11:32;101093.81;;;20.69;85.40
23473;BME280;11909;52.516;13.564;2023-08-12T08:14:01;101081.97;;;20.72;86.51
23473;BME280;11909;52.516;13.564;2023-08-12T08:16:30;101100.75;;;20.84;83.36
23473;BME280;11909;52.516;13.564;2023-08-12T08:18:58;101090.19;;;20.90;83.70
23473;BME280;11909;52.516;13.564;2023-08-12T08:21:26;101093.75;;;20.99;82.50
23473;BME280;11909;52.516;13.564;2023-08-12T08:23:54;101084.78;;;21.06;83.93
23473;BME280;11909;52.516;13.564;2023-08-12T08:26:22;101090.50;;;21.10;84.26
23473;BME280;11909;52.516;13.564;2023-08-12T08:28:50;101089.13;;;21.16;85.06
23473;BME280;11909;52.516;13.564;2023-08-12T08:31:18;101089.94;;;21.16;85.82
23473;BME280;11909;52.516;13.564;2023-08-12T08:33:47;101081.91;;;21.15;86.35
23473;BME280;11909;52.516;13.564;2023-08-12T08:36:15;101086.56;;;21.11;86.32
23473;BME280;11909;52.516;13.564;2023-08-12T08:38:45;101073.75;;;21.10;87.56
23473;BME280;11909;52.516;13.564;2023-08-12T08:41:12;101082.47;;;21.08;88.47
23473;BME280;11909;52.516;13.564;2023-08-12T08:43:43;101076.78;;;21.04;89.46
23473;BME280;11909;52.516;13.564;2023-08-12T08:46:13;101078.75;;;21.04;92.11
23473;BME280;11909;52.516;13.564;2023-08-12T08:48:42;101078.75;;;21.04;94.87
23473;BME280;11909;52.516;13.564;2023-08-12T08:51:12;101070.91;;;20.97;94.42
23473;BME280;11909;52.516;13.564;2023-08-12T08:53:40;101084.75;;;20.94;95.20
23473;BME280;11909;52.516;13.564;2023-08-12T08:56:11;101078.56;;;20.88;95.84
23473;BME280;11909;52.516;13.564;2023-08-12T08:58:41;101075.31;;;20.86;97.09
23473;BME280;11909;52.516;13.564;2023-08-12T09:01:10;101083.91;;;20.81;97.56
23473;BME280;11909;52.516;13.564;2023-08-12T09:03:39;101077.34;;;20.76;98.02
23473;BME280;11909;52.516;13.564;2023-08-12T09:06:07;101071.63;;;20.73;98.11
23473;BME280;11909;52.516;13.564;2023-08-12T09:08:38;101072.31;;;20.70;98.52
23473;BME280;11909;52.516;13.564;2023-08-12T09:11:08;101075.44;;;20.68;99.01
23473;BME280;11909;52.516;13.564;2023-08-12T09:13:37;101062.78;;;20.71;100.00
23473;BME280;11909;52.516;13.564;2023-08-12T09:16:05;101075.59;;;20.72;100.00
23473;BME280;11909;52.516;13.564;2023-08-12T09:18:32;101066.53;;;20.75;100.00
23473;BME280;11909;52.516;13.564;2023-08-12T09:21:01;101067.47;;;20.79;100.00
23473;BME280;11909;52.516;13.564;2023-08-12T09:23:34;101063.22;;;20.82;100.00
23473;BME280;11909;52.516;13.564;2023-08-12T09:26:11;101054.16;;;20.85;100.00
23473;BME280;11909;52.516;13.564;2023-08-12T09:28:40;101053.00;;;20.86;100.00
23473;BME280;11909;52.516;13.564;2023-08-12T09:31:22;101056.41;;;20.91;100.00
23473;BME280;11909;52.516;13.564;2023-08-12T09:33:50;101058.28;;;21.00;100.00
23473;BME280;11909;52.516;13.564;2023-08-12T09:36:19;101069.94;;;21.14;96.47
23473;BME280;11909;52.516;13.564;2023-08-12T09:38:48;101064.03;;;21.28;95.87
23473;BME280;11909;52.516;13.564;2023-08-12T09:41:18;101076.28;;;21.48;89.09
23473;BME280;11909;52.516;13.564;2023-08-12T09:43:46;101085.75;;;21.69;86.16
23473;BME280;11909;52.516;13.564;2023-08-12T09:46:14;101085.75;;;21.81;82.20
23473;BME280;11909;52.516;13.564;2023-08-12T09:48:42;101085.03;;;21.97;80.72
23473;BME280;11909;52.516;13.564;2023-08-12T09:51:10;101075.38;;;22.06;80.95
23473;BME280;11909;52.516;13.564;2023-08-12T09:53:38;101076.16;;;22.19;81.23
23473;BME280;11909;52.516;13.564;2023-08-12T09:56:11;101078.72;;;22.25;77.91
23473;BME280;11909;52.516;13.564;2023-08-12T09:58:41;101079.03;;;22.23;77.59
23473;BME280;11909;52.516;13.564;2023-08-12T10:01:11;101067.31;;;22.17;78.28
23473;BME280;11909;52.516;13.564;2023-08-12T10:03:41;101061.63;;;22.14;80.63
23473;BME280;11909;52.516;13.564;2023-08-12T10:06:09;101060.31;;;22.11;82.00
23473;BME280;11909;52.516;13.564;2023-08-12T10:08:40;101065.19;;;22.14;83.28
23473;BME280;11909;52.516;13.564;2023-08-12T10:11:09;101064.28;;;22.23;82.27
23473;BME280;11909;52.516;13.564;2023-08-12T10:13:41;101061.81;;;22.33;81.40
23473;BME280;11909;52.516;13.564;2023-08-12T10:16:09;101059.81;;;22.34;81.84
23473;BME280;11909;52.516;13.564;2023-08-12T10:18:39;101070.03;;;22.55;77.86
23473;BME280;11909;52.516;13.564;2023-08-12T10:21:09;101061.44;;;22.47;78.88
23473;BME280;11909;52.516;13.564;2023-08-12T10:23:37;101052.56;;;22.45;80.04
23473;BME280;11909;52.516;13.564;2023-08-12T10:26:06;101049.31;;;22.43;80.74
23473;BME280;11909;52.516;13.564;2023-08-12T10:28:34;101043.94;;;22.51;81.73
23473;BME280;11909;52.516;13.564;2023-08-12T10:31:06;101044.31;;;22.49;80.90
23473;BME280;11909;52.516;13.564;2023-08-12T10:33:38;101046.13;;;22.57;79.81
23473;BME280;11909;52.516;13.564;2023-08-12T10:36:06;101028.44;;;22.53;80.93
23473;BME280;11909;52.516;13.564;2023-08-12T10:38:35;101031.69;;;22.55;80.97
23473;BME280;11909;52.516;13.564;2023-08-12T10:41:16;101024.09;;;22.56;83.52
23473;BME280;11909;52.516;13.564;2023-08-12T10:43:55;101030.63;;;22.60;80.70
23473;BME280;11909;52.516;13.564;2023-08-12T10:46:29;101016.44;;;22.53;83.60
23473;BME280;11909;52.516;13.564;2023-08-12T10:49:03;101017.97;;;22.50;86.34
23473;BME280;11909;52.516;13.564;2023-08-12T10:51:44;101006.53;;;22.43;86.76
23473;BME280;11909;52.516;13.564;2023-08-12T10:54:17;101003.75;;;22.43;88.37
23473;BME280;11909;52.516;13.564;2023-08-12T10:57:07;100996.19;;;22.43;90.82
23473;BME280;11909;52.516;13.564;2023-08-12T10:59:48;100982.91;;;22.40;89.52
23473;BME280;11909;52.516;13.564;2023-08-12T11:02:19;100995.81;;;22.45;87.28
23473;BME280;11909;52.516;13.564;2023-08-12T11:04:52;101003.41;;;22.44;88.69
23473;BME280;11909;52.516;13.564;2023-08-12T11:07:22;101014.78;;;22.64;84.77
23473;BME280;11909;52.516;13.564;2023-08-12T11:09:59;101013.69;;;22.69;84.13
23473;BME280;11909;52.516;13.564;2023-08-12T11:12:32;101010.72;;;22.77;83.50
23473;BME280;11909;52.516;13.564;2023-08-12T11:15:01;101008.81;;;22.82;84.08
23473;BME280;11909;52.516;13.564;2023-08-12T11:17:36;101013.00;;;22.88;83.78
23473;BME280;11909;52.516;13.564;2023-08-12T11:20:06;101014.28;;;23.06;80.84
23473;BME280;11909;52.516;13.564;2023-08-12T11:22:37;101013.38;;;23.02;82.70
23473;BME280;11909;52.516;13.564;2023-08-12T11:25:08;101008.16;;;23.01;84.03
23473;BME280;11909;52.516;13.564;2023-08-12T11:27:40;100998.03;;;22.96;84.04
23473;BME280;11909;52.516;13.564;2023-08-12T11:30:10;101004.91;;;22.99;81.75
23473;BME280;11909;52.516;13.564;2023-08-12T11:32:39;101010.50;;;22.99;82.77
23473;BME280;11909;52.516;13.564;2023-08-12T11:35:09;101005.25;;;22.97;82.92
23473;BME280;11909;52.516;13.564;2023-08-12T11:37:39;101003.97;;;22.95;82.95
23473;BME280;11909;52.516;13.564;2023-08-12T11:40:09;101003.63;;;22.96;84.35
23473;BME280;11909;52.516;13.564;2023-08-12T11:42:38;101001.81;;;23.04;82.43
23473;BME280;11909;52.516;13.564;2023-08-12T11:45:07;101007.97;;;23.10;80.83
23473;BME280;11909;52.516;13.564;2023-08-12T11:47:37;101010.59;;;23.18;79.29
23473;BME280;11909;52.516;13.564;2023-08-12T11:50:09;101009.97;;;23.25;79.07
23473;BME280;11909;52.516;13.564;2023-08-12T11:52:37;101009.50;;;23.23;79.02
23473;BME280;11909;52.516;13.564;2023-08-12T11:55:06;101011.50;;;23.23;79.62
23473;BME280;11909;52.516;13.564;2023-08-12T11:57:34;101012.44;;;23.27;79.27
23473;BME280;11909;52.516;13.564;2023-08-12T12:00:05;101009.97;;;23.25;78.90
23473;BME280;11909;52.516;13.564;2023-08-12T12:02:46;101011.25;;;23.28;78.68
23473;BME280;11909;52.516;13.564;2023-08-12T12:05:17;101021.19;;;23.25;79.01
23473;BME280;11909;52.516;13.564;2023-08-12T12:07:49;101020.44;;;23.60;75.68
23473;BME280;11909;52.516;13.564;2023-08-12T12:10:18;101015.81;;;23.52;76.51
23473;BME280;11909;52.516;13.564;2023-08-12T12:12:46;101011.66;;;23.62;74.99
23473;BME280;11909;52.516;13.564;2023-08-12T12:15:14;101018.88;;;23.63;74.19
23473;BME280;11909;52.516;13.564;2023-08-12T12:17:45;101017.94;;;23.55;74.90
23473;BME280;11909;52.516;13.564;2023-08-12T12:20:13;101017.56;;;23.57;74.41
23473;BME280;11909;52.516;13.564;2023-08-12T12:22:43;101013.84;;;23.53;74.76
23473;BME280;11909;52.516;13.564;2023-08-12T12:25:12;101025.50;;;23.55;74.87
23473;BME280;11909;52.516;13.564;2023-08-12T12:27:43;101024.63;;;23.51;76.25
23473;BME280;11909;52.516;13.564;2023-08-12T12:30:13;101035.06;;;23.70;73.90
23473;BME280;11909;52.516;13.564;2023-08-12T12:32:41;101032.63;;;23.68;75.01
23473;BME280;11909;52.516;13.564;2023-08-12T12:35:10;101028.69;;;23.53;75.83
23473;BME280;11909;52.516;13.564;2023-08-12T12:37:38;101021.72;;;23.47;76.66
23473;BME280;11909;52.516;13.564;2023-08-12T12:40:09;101020.47;;;23.44;75.99
23473;BME280;11909;52.516;13.564;2023-08-12T12:42:37;101004.31;;;23.38;75.27
23473;BME280;11909;52.516;13.564;2023-08-12T12:45:06;100990.59;;;23.32;76.73
23473;BME280;11909;52.516;13.564;2023-08-12T12:47:35;100984.53;;;23.30;75.80
23473;BME280;11909;52.516;13.564;2023-08-12T12:50:04;100976.19;;;23.18;77.98